createdAt,value
2022-08-24T00:00:12.769Z,90.70
2022-08-24T00:02:41.569Z,90.70
2022-08-24T00:05:14.555Z,90.70
2022-08-24T00:07:43.451Z,90.70
2022-08-24T00:10:13.485Z,91.10
2022-08-24T00:12:41.736Z,90.80
2022-08-24T00:15:13.917Z,90.80
2022-08-24T00:17:42.471Z,90.70
2022-08-24T00:20:12.555Z,90.80
2022-08-24T00:22:41.278Z,90.70
2022-08-24T00:25:11.099Z,90.80
2022-08-24T00:27:41.163Z,90.70
2022-08-24T00:30:15.451Z,90.80
2022-08-24T00:32:44.431Z,90.80
2022-08-24T00:35:13.551Z,90.80
2022-08-24T00:37:42.028Z,90.80
2022-08-24T00:40:13.871Z,90.90
2022-08-24T00:42:43.804Z,90.90
2022-08-24T00:45:17.377Z,91.00
2022-08-24T00:47:50.367Z,90.90
2022-08-24T00:50:24.070Z,90.90
2022-08-24T00:52:56.495Z,91.00
2022-08-24T00:55:30.532Z,91.10
2022-08-24T00:58:03.119Z,91.10
2022-08-24T01:00:48.592Z,91.10
2022-08-24T01:03:18.019Z,91.10
2022-08-24T01:05:47.049Z,91.00
2022-08-24T01:08:17.168Z,91.10
2022-08-24T01:10:50.585Z,91.00
2022-08-24T01:13:18.876Z,91.00
2022-08-24T01:15:51.576Z,91.10
2022-08-24T01:18:40.720Z,91.10
2022-08-24T01:21:15.765Z,91.10
2022-08-24T01:23:49.566Z,91.10
2022-08-24T01:26:22.736Z,91.10
2022-08-24T01:28:56.677Z,91.00
2022-08-24T01:31:26.562Z,91.30
2022-08-24T01:33:56.694Z,91.10
2022-08-24T01:36:33.005Z,91.00
2022-08-24T01:39:08.276Z,91.00
2022-08-24T01:41:36.538Z,90.90
2022-08-24T01:44:05.640Z,90.90
2022-08-24T01:46:34.763Z,91.00
2022-08-24T01:49:03.992Z,91.10
2022-08-24T01:51:33.462Z,91.00
2022-08-24T01:54:03.688Z,91.10
2022-08-24T01:56:34.129Z,91.20
2022-08-24T01:59:05.107Z,91.10
2022-08-24T02:01:38.822Z,91.20
2022-08-24T02:04:09.688Z,91.20
2022-08-24T02:06:40.809Z,91.20
2022-08-24T02:13:25.152Z,91.40
2022-08-24T02:15:53.475Z,91.30
2022-08-24T02:18:21.894Z,91.40
2022-08-24T02:20:50.387Z,91.60
2022-08-24T02:23:18.762Z,91.70
2022-08-24T02:25:47.038Z,91.80
2022-08-24T02:28:15.330Z,91.60
2022-08-24T02:30:45.043Z,91.70
2022-08-24T02:33:13.394Z,91.80
2022-08-24T02:35:42.418Z,91.70
2022-08-24T02:38:11.035Z,91.70
2022-08-24T02:40:40.413Z,91.80
2022-08-24T02:43:08.863Z,91.80
2022-08-24T02:45:41.109Z,91.80
2022-08-24T02:48:11.892Z,91.90
2022-08-24T02:50:41.181Z,92.00
2022-08-24T02:53:09.787Z,92.00
2022-08-24T02:55:41.196Z,92.30
2022-08-24T02:58:10.757Z,92.10
2022-08-24T03:00:40.913Z,92.20
2022-08-24T03:03:11.582Z,92.30
2022-08-24T03:05:40.653Z,92.50
2022-08-24T03:08:09.560Z,92.50
2022-08-24T03:10:40.979Z,92.40
2022-08-24T03:13:10.174Z,92.50
2022-08-24T03:15:41.770Z,92.50
2022-08-24T03:18:11.695Z,92.50
2022-08-24T03:20:43.975Z,92.60
2022-08-24T03:23:12.819Z,92.50
2022-08-24T03:25:41.161Z,92.60
2022-08-24T03:28:11.169Z,92.60
2022-08-24T03:30:43.775Z,92.70
2022-08-24T03:33:21.503Z,93.00
2022-08-24T03:35:50.307Z,92.80
2022-08-24T03:38:19.609Z,93.00
2022-08-24T03:40:48.116Z,93.10
2022-08-24T03:43:30.617Z,93.10
2022-08-24T03:46:02.886Z,93.10
2022-08-24T03:48:32.563Z,93.10
2022-08-24T03:51:00.916Z,93.20
2022-08-24T03:53:29.268Z,93.20
2022-08-24T03:55:57.619Z,93.40
2022-08-24T03:58:26.190Z,93.50
2022-08-24T04:00:59.364Z,93.60
2022-08-24T04:03:28.194Z,93.70
2022-08-24T04:06:02.797Z,93.90
2022-08-24T04:08:31.817Z,94.10
2022-08-24T04:11:00.286Z,94.10
2022-08-24T04:13:32.084Z,94.10
2022-08-24T04:16:06.171Z,94.30
2022-08-24T04:18:34.805Z,94.20
2022-08-24T04:21:04.834Z,94.10
2022-08-24T04:23:47.003Z,94.20
2022-08-24T04:26:45.152Z,94.20
2022-08-24T04:29:09.410Z,94.10
2022-08-24T04:31:43.111Z,94.10
2022-08-24T04:34:13.123Z,94.10
2022-08-24T04:36:43.424Z,94.10
2022-08-24T04:39:11.705Z,94.10
2022-08-24T04:41:59.933Z,94.20
2022-08-24T04:44:34.276Z,94.50
2022-08-24T04:47:02.993Z,94.20
2022-08-24T04:49:35.047Z,94.20
2022-08-24T04:52:08.198Z,94.20
2022-08-24T04:54:36.637Z,94.20
2022-08-24T04:57:19.736Z,94.30
2022-08-24T04:59:49.225Z,94.50
2022-08-24T05:02:18.498Z,94.50
2022-08-24T05:04:50.122Z,94.30
2022-08-24T05:07:20.299Z,94.30
2022-08-24T05:09:48.896Z,94.20
2022-08-24T05:12:21.481Z,94.30
2022-08-24T05:15:00.611Z,94.10
2022-08-24T05:17:30.603Z,93.90
2022-08-24T05:19:59.527Z,93.90
2022-08-24T05:22:33.531Z,93.80
2022-08-24T05:25:02.462Z,93.60
2022-08-24T05:27:30.848Z,93.50
2022-08-24T05:29:59.237Z,93.30
2022-08-24T05:32:30.176Z,93.10
2022-08-24T05:35:01.545Z,92.90
2022-08-24T05:37:30.164Z,92.80
2022-08-24T05:40:16.313Z,92.60
2022-08-24T05:42:48.791Z,92.40
2022-08-24T05:45:17.793Z,92.40
2022-08-24T05:47:46.071Z,92.30
2022-08-24T05:50:54.064Z,92.30
2022-08-24T05:53:22.454Z,92.00
2022-08-24T05:55:52.810Z,92.00
2022-08-24T05:58:30.624Z,91.80
2022-08-24T06:01:07.753Z,91.50
2022-08-24T06:03:36.036Z,91.30
2022-08-24T06:06:08.393Z,91.30
2022-08-24T06:08:41.239Z,91.30
2022-08-24T06:11:13.877Z,91.30
2022-08-24T06:13:51.905Z,91.30
2022-08-24T06:16:43.276Z,91.40
2022-08-24T06:19:14.082Z,91.30
2022-08-24T06:21:43.660Z,91.10
2022-08-24T06:24:12.734Z,90.90
2022-08-24T06:27:00.370Z,90.90
2022-08-24T06:29:28.991Z,90.80
2022-08-24T06:32:06.407Z,90.80
2022-08-24T06:34:39.291Z,90.90
2022-08-24T06:37:07.794Z,90.70
2022-08-24T06:39:36.847Z,90.80
2022-08-24T06:42:08.832Z,90.60
2022-08-24T06:44:39.002Z,90.60
2022-08-24T06:47:22.700Z,90.60
2022-08-24T06:50:00.088Z,90.50
2022-08-24T06:52:29.999Z,90.40
2022-08-24T06:54:58.467Z,90.30
2022-08-24T06:57:28.813Z,90.30
2022-08-24T06:59:57.635Z,90.20
2022-08-24T07:02:26.194Z,90.00
2022-08-24T07:04:54.915Z,90.00
2022-08-24T07:07:42.190Z,89.80
2022-08-24T07:10:11.658Z,90.00
2022-08-24T07:12:41.882Z,89.40
2022-08-24T07:15:16.466Z,89.40
2022-08-24T07:17:58.293Z,89.20
2022-08-24T07:20:26.494Z,88.60
2022-08-24T07:23:14.901Z,88.50
2022-08-24T07:25:49.604Z,88.00
2022-08-24T07:28:31.781Z,87.70
2022-08-24T07:31:03.686Z,87.40
2022-08-24T07:33:36.659Z,86.90
2022-08-24T07:36:06.176Z,86.40
2022-08-24T07:38:35.212Z,85.80
2022-08-24T07:41:35.352Z,85.80
2022-08-24T07:43:57.060Z,85.50
2022-08-24T07:46:25.801Z,85.40
2022-08-24T07:49:05.107Z,84.70
2022-08-24T07:51:44.976Z,84.30
2022-08-24T07:54:17.861Z,84.20
2022-08-24T07:56:46.267Z,84.00
2022-08-24T07:59:16.095Z,83.80
2022-08-24T08:01:44.343Z,83.30
2022-08-24T08:04:14.276Z,83.00
2022-08-24T08:06:44.807Z,82.90
2022-08-24T08:09:13.012Z,82.90
2022-08-24T08:11:41.675Z,82.80
2022-08-24T08:14:09.858Z,82.70
2022-08-24T08:16:39.499Z,82.50
2022-08-24T08:19:18.899Z,82.40
2022-08-24T08:22:11.981Z,82.50
2022-08-24T08:25:10.921Z,82.60
2022-08-24T08:27:49.176Z,82.70
2022-08-24T08:30:22.434Z,82.00
2022-08-24T08:32:57.536Z,81.90
2022-08-24T08:36:07.575Z,81.80
2022-08-24T08:38:46.335Z,81.70
2022-08-24T08:42:02.973Z,81.00
2022-08-24T08:44:56.244Z,80.50
2022-08-24T08:47:57.040Z,80.50
2022-08-24T08:50:41.026Z,80.20
2022-08-24T08:53:47.497Z,79.90
2022-08-24T08:56:23.984Z,79.00
2022-08-24T08:59:04.367Z,78.60
2022-08-24T09:02:12.228Z,78.30
2022-08-24T09:05:02.570Z,78.30
2022-08-24T09:07:46.301Z,78.20
2022-08-24T09:10:37.182Z,77.80
2022-08-24T09:13:25.409Z,77.50
2022-08-24T09:16:10.893Z,76.90
2022-08-24T09:19:01.214Z,76.80
2022-08-24T09:21:55.716Z,76.60
2022-08-24T09:24:49.101Z,76.30
2022-08-24T09:27:42.250Z,76.20
2022-08-24T09:30:18.405Z,75.90
2022-08-24T09:33:10.522Z,76.00
2022-08-24T09:36:10.521Z,75.50
2022-08-24T09:39:07.224Z,75.60
2022-08-24T09:42:11.725Z,75.30
2022-08-24T09:45:14.397Z,75.10
2022-08-24T09:48:03.733Z,74.50
2022-08-24T09:50:59.786Z,74.20
2022-08-24T09:54:00.271Z,73.70
2022-08-24T09:57:11.734Z,73.20
2022-08-24T10:00:09.998Z,72.90
2022-08-24T10:03:26.255Z,72.60
2022-08-24T10:06:24.039Z,72.50
2022-08-24T10:09:12.275Z,72.30
2022-08-24T10:11:51.048Z,72.00
2022-08-24T10:14:36.824Z,72.10
2022-08-24T10:17:17.377Z,71.50
2022-08-24T10:20:01.416Z,71.50
2022-08-24T10:22:50.167Z,71.10
2022-08-24T10:25:31.761Z,70.60
2022-08-24T10:28:16.331Z,70.00
2022-08-24T10:31:07.811Z,69.90
2022-08-24T10:33:56.012Z,69.80
2022-08-24T10:36:53.217Z,70.10
2022-08-24T10:39:52.788Z,69.80
2022-08-24T10:43:11.497Z,69.60
2022-08-24T10:46:00.750Z,69.40
2022-08-24T10:49:23.434Z,69.70
2022-08-24T10:52:20.382Z,69.60
2022-08-24T10:54:49.701Z,69.10
2022-08-24T10:57:26.669Z,68.80
2022-08-24T11:00:04.940Z,68.20
2022-08-24T11:02:35.762Z,69.20
2022-08-24T11:05:08.329Z,67.70
2022-08-24T11:07:54.589Z,67.40
2022-08-24T11:10:27.846Z,67.20
2022-08-24T11:12:56.628Z,67.50
2022-08-24T11:15:28.238Z,67.30
2022-08-24T11:17:58.977Z,67.60
2022-08-24T11:20:31.532Z,67.50
2022-08-24T11:23:05.258Z,67.60
2022-08-24T11:25:38.745Z,67.90
2022-08-24T11:28:20.603Z,68.00
2022-08-24T11:30:49.446Z,68.50
2022-08-24T11:33:30.423Z,68.70
2022-08-24T11:36:00.940Z,67.60
2022-08-24T11:38:34.963Z,67.80
2022-08-24T11:41:08.758Z,67.40
2022-08-24T11:43:52.813Z,67.50
2022-08-24T11:46:29.811Z,67.50
2022-08-24T11:49:09.497Z,67.90
2022-08-24T11:51:44.539Z,67.10
2022-08-24T11:54:24.685Z,66.00
2022-08-24T11:57:08.491Z,65.20
2022-08-24T11:59:46.553Z,63.70
2022-08-24T12:02:24.546Z,63.60
2022-08-24T12:04:58.819Z,63.30
2022-08-24T12:07:36.521Z,63.30
2022-08-24T12:10:19.821Z,63.40
2022-08-24T12:12:52.895Z,63.40
2022-08-24T12:15:34.992Z,63.50
2022-08-24T12:18:07.736Z,64.00
2022-08-24T12:20:48.145Z,64.30
2022-08-24T12:23:24.691Z,64.60
2022-08-24T12:26:03.654Z,65.30
2022-08-24T12:28:38.058Z,64.10
2022-08-24T12:31:16.039Z,62.50
2022-08-24T12:33:52.187Z,61.70
2022-08-24T12:36:37.563Z,59.80
2022-08-24T12:39:11.920Z,58.10
2022-08-24T12:41:50.409Z,56.80
2022-08-24T12:44:21.100Z,56.10
2022-08-24T12:46:54.505Z,55.30
2022-08-24T12:49:30.357Z,54.90
2022-08-24T12:52:31.989Z,55.00
2022-08-24T12:55:22.213Z,54.40
2022-08-24T12:58:31.043Z,54.30
2022-08-24T13:00:54.486Z,54.30
2022-08-24T13:03:32.652Z,55.00
2022-08-24T13:06:05.919Z,55.00
2022-08-24T13:08:38.238Z,55.70
2022-08-24T13:11:15.842Z,55.30
2022-08-24T13:13:49.141Z,55.70
2022-08-24T13:16:50.850Z,56.40
2022-08-24T13:19:34.106Z,56.60
2022-08-24T13:22:38.985Z,57.00
2022-08-24T13:25:25.034Z,57.40
2022-08-24T13:28:07.668Z,57.70
2022-08-24T13:31:13.980Z,58.30
2022-08-24T13:33:47.717Z,58.30
2022-08-24T13:36:45.013Z,58.90
2022-08-24T13:39:48.166Z,57.70
2022-08-24T13:42:31.124Z,56.90
2022-08-24T13:45:17.919Z,56.70
2022-08-24T13:48:10.053Z,56.50
2022-08-24T13:50:46.642Z,56.00
2022-08-24T13:53:37.539Z,55.60
2022-08-24T13:56:34.072Z,55.60
2022-08-24T13:59:10.374Z,55.10
2022-08-24T14:01:53.317Z,55.30
2022-08-24T14:04:38.436Z,55.50
2022-08-24T14:07:15.772Z,55.80
2022-08-24T14:10:02.574Z,55.90
2022-08-24T14:12:50.754Z,56.00
2022-08-24T14:15:29.006Z,56.50
2022-08-24T14:18:10.398Z,56.80
2022-08-24T14:21:01.399Z,56.80
2022-08-24T14:23:50.350Z,57.10
2022-08-24T14:26:58.844Z,57.40
2022-08-24T14:29:35.763Z,57.80
2022-08-24T14:32:44.914Z,58.00
2022-08-24T14:35:39.591Z,58.10
2022-08-24T14:38:34.854Z,58.40
2022-08-24T14:41:17.150Z,58.50
2022-08-24T14:44:03.765Z,58.70
2022-08-24T14:46:39.399Z,59.20
2022-08-24T14:49:16.875Z,59.50
2022-08-24T14:52:00.745Z,59.80
2022-08-24T14:58:21.445Z,60.90
2022-08-24T15:01:45.432Z,61.20
2022-08-24T15:04:38.473Z,61.50
2022-08-24T15:07:29.867Z,61.90
2022-08-24T15:10:02.295Z,62.20
2022-08-24T15:12:45.404Z,62.60
2022-08-24T15:15:35.919Z,62.40
2022-08-24T15:18:11.444Z,63.00
2022-08-24T15:20:47.233Z,63.00
2022-08-24T15:23:24.335Z,62.90
2022-08-24T15:26:00.151Z,63.00
2022-08-24T15:28:34.281Z,63.40
2022-08-24T15:31:10.615Z,63.40
2022-08-24T15:33:54.278Z,63.60
2022-08-24T15:36:22.605Z,63.30
2022-08-24T15:38:53.926Z,63.60
2022-08-24T15:41:32.292Z,63.10
2022-08-24T15:44:04.661Z,61.80
2022-08-24T15:46:40.855Z,60.80
2022-08-24T15:49:17.396Z,59.50
2022-08-24T15:51:56.702Z,58.20
2022-08-24T15:54:33.809Z,57.10
2022-08-24T15:57:05.813Z,56.20
2022-08-24T15:59:48.179Z,55.80
2022-08-24T16:02:31.567Z,54.60
2022-08-24T16:05:20.765Z,54.10
2022-08-24T16:08:11.536Z,53.50
2022-08-24T16:10:44.217Z,52.90
2022-08-24T16:13:30.523Z,53.10
2022-08-24T16:16:03.237Z,53.10
2022-08-24T16:18:49.941Z,53.50
2022-08-24T16:21:22.477Z,54.00
2022-08-24T16:24:01.433Z,54.30
2022-08-24T16:26:31.903Z,54.30
2022-08-24T16:29:02.417Z,54.40
2022-08-24T16:31:52.007Z,54.60
2022-08-24T16:34:29.768Z,54.10
2022-08-24T16:37:00.508Z,54.30
2022-08-24T16:39:29.190Z,54.70
2022-08-24T16:42:03.665Z,54.90
2022-08-24T16:44:39.085Z,55.20
2022-08-24T16:47:08.809Z,55.50
2022-08-24T16:49:40.242Z,55.80
2022-08-24T16:52:10.701Z,56.00
2022-08-24T16:54:43.190Z,56.70
2022-08-24T16:57:17.154Z,55.70
2022-08-24T16:59:49.676Z,56.20
2022-08-24T17:02:20.341Z,56.40
2022-08-24T17:04:49.063Z,56.60
2022-08-24T17:07:22.430Z,56.90
2022-08-24T17:09:50.777Z,56.80
2022-08-24T17:12:22.456Z,56.90
2022-08-24T17:14:52.363Z,57.30
2022-08-24T17:17:22.776Z,57.10
2022-08-24T17:19:53.040Z,56.90
2022-08-24T17:22:21.743Z,57.10
2022-08-24T17:24:50.661Z,57.10
2022-08-24T17:27:21.465Z,57.10
2022-08-24T17:29:51.414Z,57.40
2022-08-24T17:32:23.282Z,57.80
2022-08-24T17:34:52.075Z,57.90
2022-08-24T17:37:21.355Z,58.80
2022-08-24T17:39:55.082Z,59.40
2022-08-24T17:42:49.080Z,59.40
2022-08-24T17:45:14.850Z,60.00
2022-08-24T17:47:44.224Z,60.70
2022-08-24T17:50:16.218Z,61.20
2022-08-24T17:52:45.115Z,62.00
2022-08-24T17:55:15.427Z,62.50
2022-08-24T17:57:49.019Z,62.60
2022-08-24T18:00:19.254Z,63.60
2022-08-24T18:02:50.183Z,64.30
2022-08-24T18:05:19.072Z,64.60
2022-08-24T18:07:54.608Z,65.00
2022-08-24T18:10:25.631Z,65.10
2022-08-24T18:12:54.483Z,65.80
2022-08-24T18:15:30.129Z,67.40
2022-08-24T18:18:06.728Z,67.10
2022-08-24T18:20:39.914Z,67.10
2022-08-24T18:23:11.833Z,67.50
2022-08-24T18:25:51.160Z,68.10
2022-08-24T18:28:24.398Z,68.60
2022-08-24T18:30:55.101Z,68.70
2022-08-24T18:33:53.141Z,69.30
2022-08-24T18:36:30.639Z,69.50
2022-08-24T18:39:05.112Z,70.10
2022-08-24T18:44:48.972Z,70.50
2022-08-24T18:47:27.338Z,71.10
2022-08-24T18:50:20.790Z,71.00
2022-08-24T18:53:13.512Z,72.30
2022-08-24T18:55:57.768Z,72.10
2022-08-24T18:58:44.337Z,72.80
2022-08-24T19:01:20.906Z,72.70
2022-08-24T19:03:51.657Z,73.30
2022-08-24T19:06:48.462Z,73.40
2022-08-24T19:09:23.348Z,73.80
2022-08-24T19:13:19.820Z,74.20
2022-08-24T19:20:19.253Z,75.00
2022-08-24T19:26:04.531Z,75.60
2022-08-24T19:36:00.284Z,76.50
2022-08-24T19:39:31.734Z,76.50
2022-08-24T19:42:23.114Z,77.50
2022-08-24T19:48:03.730Z,78.20
2022-08-24T19:53:59.149Z,78.90
2022-08-24T19:56:36.250Z,79.30
2022-08-24T19:59:59.513Z,79.60
2022-08-24T20:03:54.163Z,79.30
2022-08-24T20:07:04.703Z,79.70
2022-08-24T20:09:54.727Z,79.70
2022-08-24T20:12:57.763Z,79.80
2022-08-24T20:16:10.543Z,79.40
2022-08-24T20:23:02.292Z,80.30
2022-08-24T20:25:44.276Z,80.60
2022-08-24T20:28:38.189Z,80.70
2022-08-24T20:31:45.237Z,81.10
2022-08-24T20:34:20.362Z,82.00
2022-08-24T20:37:03.071Z,81.60
2022-08-24T20:39:52.013Z,81.70
2022-08-24T20:42:23.477Z,81.70
2022-08-24T20:44:57.395Z,81.90
2022-08-24T20:47:26.508Z,82.50
2022-08-24T20:49:54.860Z,81.90
2022-08-24T20:52:23.314Z,82.10
2022-08-24T20:55:06.237Z,82.50
2022-08-24T20:58:03.364Z,82.70
2022-08-24T21:00:34.555Z,82.80
2022-08-24T21:03:03.165Z,82.90
2022-08-24T21:05:36.365Z,82.80
2022-08-24T21:08:12.305Z,83.30
2022-08-24T21:10:45.570Z,83.40
2022-08-24T21:13:19.211Z,83.70
2022-08-24T21:15:57.858Z,83.40
2022-08-24T21:18:29.933Z,83.50
2022-08-24T21:21:03.761Z,83.90
2022-08-24T21:23:33.987Z,83.70
2022-08-24T21:26:13.191Z,83.60
2022-08-24T21:28:43.480Z,83.70
2022-08-24T21:31:23.682Z,83.70
2022-08-24T21:34:26.644Z,84.20
2022-08-24T21:37:12.326Z,84.20
2022-08-24T21:39:41.194Z,84.00
2022-08-24T21:42:17.003Z,84.20
2022-08-24T21:44:50.265Z,84.20
2022-08-24T21:47:29.748Z,84.30
2022-08-24T21:50:04.481Z,84.80
2022-08-24T21:52:40.719Z,85.00
2022-08-24T21:55:14.767Z,85.10
2022-08-24T21:57:51.999Z,85.00
2022-08-24T22:00:30.788Z,85.20
2022-08-24T22:02:59.725Z,85.80
2022-08-24T22:05:27.983Z,86.20
2022-08-24T22:07:56.350Z,85.60
2022-08-24T22:10:26.471Z,85.70
2022-08-24T22:12:58.020Z,85.90
2022-08-24T22:15:28.222Z,86.00
2022-08-24T22:17:56.540Z,86.00
2022-08-24T22:20:24.791Z,86.10
2022-08-24T22:22:53.281Z,86.50
2022-08-24T22:25:21.667Z,86.40
2022-08-24T22:27:49.929Z,86.50
2022-08-24T22:30:24.362Z,87.00
2022-08-24T22:32:52.808Z,86.90
2022-08-24T22:35:24.173Z,87.10
2022-08-24T22:37:53.267Z,87.30
2022-08-24T22:40:21.664Z,87.40
2022-08-24T22:42:49.901Z,87.30
2022-08-24T22:45:18.219Z,87.30
2022-08-24T22:47:47.833Z,87.30
2022-08-24T22:50:16.551Z,88.40
2022-08-24T22:52:48.088Z,87.50
2022-08-24T22:55:16.504Z,87.90
2022-08-24T22:57:44.894Z,87.90
2022-08-24T23:00:18.580Z,87.80
2022-08-24T23:02:49.996Z,88.00
2022-08-24T23:05:18.315Z,88.20
2022-08-24T23:07:46.411Z,88.20
2022-08-24T23:10:17.168Z,88.30
2022-08-24T23:12:45.374Z,88.90
2022-08-24T23:15:16.997Z,88.50
2022-08-24T23:17:45.589Z,88.70
2022-08-24T23:20:14.277Z,88.60
2022-08-24T23:22:43.689Z,88.80
2022-08-24T23:25:15.914Z,88.80
2022-08-24T23:27:46.525Z,89.00
2022-08-24T23:30:19.997Z,89.20
2022-08-24T23:32:49.231Z,89.40
2022-08-24T23:35:21.542Z,89.30
2022-08-24T23:37:57.703Z,89.60
2022-08-24T23:40:25.905Z,89.60
2022-08-24T23:42:56.386Z,89.60
2022-08-24T23:45:28.470Z,90.00
2022-08-24T23:47:58.815Z,89.70
2022-08-24T23:50:28.673Z,89.60
2022-08-24T23:52:56.829Z,89.70
2022-08-24T23:55:25.158Z,89.80
2022-08-24T23:57:54.419Z,89.90
